sensor_id;sensor_type;location;lat;lon;timestamp;P1;durP1;ratioP1;P2;durP2;ratioP2
39888;SDS011;25563;50.844;4.308;2022-10-31T00:00:20;19.67;;;10.80;;
39888;SDS011;25563;50.844;4.308;2022-10-31T00:02:46;12.98;;;10.18;;
39888;SDS011;25563;50.844;4.308;2022-10-31T00:05:12;20.83;;;9.95;;
39888;SDS011;25563;50.844;4.308;2022-10-31T00:07:38;17.92;;;10.10;;
39888;SDS011;25563;50.844;4.308;2022-10-31T00:10:03;11.07;;;8.73;;
39888;SDS011;25563;50.844;4.308;2022-10-31T00:12:30;14.68;;;8.30;;
39888;SDS011;25563;50.844;4.308;2022-10-31T00:14:55;12.90;;;8.57;;
39888;SDS011;25563;50.844;4.308;2022-10-31T00:17:21;13.90;;;8.80;;
39888;SDS011;25563;50.844;4.308;2022-10-31T00:19:47;13.40;;;8.85;;
39888;SDS011;25563;50.844;4.308;2022-10-31T00:22:13;12.50;;;8.63;;
39888;SDS011;25563;50.844;4.308;2022-10-31T00:24:39;15.05;;;9.35;;
39888;SDS011;25563;50.844;4.308;2022-10-31T00:27:04;15.32;;;9.73;;
39888;SDS011;25563;50.844;4.308;2022-10-31T00:29:30;13.80;;;9.80;;
39888;SDS011;25563;50.844;4.308;2022-10-31T00:31:56;11.98;;;9.43;;
39888;SDS011;25563;50.844;4.308;2022-10-31T00:34:22;13.70;;;10.65;;
39888;SDS011;25563;50.844;4.308;2022-10-31T00:36:48;19.85;;;9.90;;
39888;SDS011;25563;50.844;4.308;2022-10-31T00:39:14;17.02;;;10.05;;
39888;SDS011;25563;50.844;4.308;2022-10-31T00:41:39;19.63;;;10.88;;
39888;SDS011;25563;50.844;4.308;2022-10-31T00:44:05;18.13;;;10.73;;
39888;SDS011;25563;50.844;4.308;2022-10-31T00:46:31;22.08;;;10.88;;
39888;SDS011;25563;50.844;4.308;2022-10-31T00:48:56;20.80;;;10.35;;
39888;SDS011;25563;50.844;4.308;2022-10-31T00:51:22;18.25;;;10.50;;
39888;SDS011;25563;50.844;4.308;2022-10-31T00:53:48;16.65;;;11.50;;
39888;SDS011;25563;50.844;4.308;2022-10-31T00:56:13;18.02;;;10.30;;
39888;SDS011;25563;50.844;4.308;2022-10-31T00:58:39;16.48;;;11.23;;
39888;SDS011;25563;50.844;4.308;2022-10-31T01:01:05;17.75;;;11.20;;
39888;SDS011;25563;50.844;4.308;2022-10-31T01:03:32;14.38;;;10.98;;
39888;SDS011;25563;50.844;4.308;2022-10-31T01:06:08;17.27;;;11.57;;
39888;SDS011;25563;50.844;4.308;2022-10-31T01:08:36;16.27;;;11.60;;
39888;SDS011;25563;50.844;4.308;2022-10-31T01:13:37;17.67;;;11.02;;
39888;SDS011;25563;50.844;4.308;2022-10-31T01:16:04;16.50;;;11.32;;
39888;SDS011;25563;50.844;4.308;2022-10-31T01:18:31;22.25;;;9.50;;
39888;SDS011;25563;50.844;4.308;2022-10-31T01:21:05;16.95;;;9.55;;
39888;SDS011;25563;50.844;4.308;2022-10-31T01:23:36;15.80;;;10.73;;
39888;SDS011;25563;50.844;4.308;2022-10-31T01:26:03;14.40;;;10.25;;
39888;SDS011;25563;50.844;4.308;2022-10-31T01:28:38;16.75;;;10.40;;
39888;SDS011;25563;50.844;4.308;2022-10-31T01:31:09;14.60;;;10.30;;
39888;SDS011;25563;50.844;4.308;2022-10-31T01:33:35;15.23;;;10.10;;
39888;SDS011;25563;50.844;4.308;2022-10-31T01:36:10;13.18;;;10.05;;
39888;SDS011;25563;50.844;4.308;2022-10-31T01:38:40;14.07;;;10.32;;
39888;SDS011;25563;50.844;4.308;2022-10-31T01:41:06;15.52;;;9.68;;
39888;SDS011;25563;50.844;4.308;2022-10-31T01:46:08;16.90;;;9.90;;
39888;SDS011;25563;50.844;4.308;2022-10-31T01:48:35;11.73;;;10.45;;
39888;SDS011;25563;50.844;4.308;2022-10-31T01:51:01;11.57;;;10.05;;
39888;SDS011;25563;50.844;4.308;2022-10-31T01:53:30;14.93;;;9.80;;
39888;SDS011;25563;50.844;4.308;2022-10-31T01:55:57;18.13;;;9.82;;
39888;SDS011;25563;50.844;4.308;2022-10-31T01:58:25;24.73;;;10.10;;
39888;SDS011;25563;50.844;4.308;2022-10-31T02:00:56;11.15;;;9.68;;
39888;SDS011;25563;50.844;4.308;2022-10-31T02:03:23;14.52;;;9.90;;
39888;SDS011;25563;50.844;4.308;2022-10-31T02:05:52;16.75;;;10.40;;
39888;SDS011;25563;50.844;4.308;2022-10-31T02:08:21;17.87;;;9.57;;
39888;SDS011;25563;50.844;4.308;2022-10-31T02:10:52;15.50;;;8.82;;
39888;SDS011;25563;50.844;4.308;2022-10-31T02:13:18;12.73;;;9.63;;
39888;SDS011;25563;50.844;4.308;2022-10-31T02:15:45;21.88;;;10.35;;
39888;SDS011;25563;50.844;4.308;2022-10-31T02:18:14;19.05;;;10.30;;
39888;SDS011;25563;50.844;4.308;2022-10-31T02:25:56;16.63;;;9.02;;
39888;SDS011;25563;50.844;4.308;2022-10-31T02:28:40;15.27;;;10.13;;
39888;SDS011;25563;50.844;4.308;2022-10-31T02:36:57;14.50;;;11.10;;
39888;SDS011;25563;50.844;4.308;2022-10-31T02:39:32;18.55;;;11.07;;
39888;SDS011;25563;50.844;4.308;2022-10-31T02:42:07;12.80;;;10.30;;
39888;SDS011;25563;50.844;4.308;2022-10-31T02:47:14;16.42;;;11.57;;
39888;SDS011;25563;50.844;4.308;2022-10-31T02:52:25;18.63;;;11.63;;
39888;SDS011;25563;50.844;4.308;2022-10-31T02:54:53;18.25;;;10.80;;
39888;SDS011;25563;50.844;4.308;2022-10-31T02:57:20;18.08;;;10.77;;
39888;SDS011;25563;50.844;4.308;2022-10-31T02:59:52;15.25;;;10.63;;
39888;SDS011;25563;50.844;4.308;2022-10-31T03:10:59;17.55;;;10.52;;
39888;SDS011;25563;50.844;4.308;2022-10-31T03:14:19;19.80;;;10.68;;
39888;SDS011;25563;50.844;4.308;2022-10-31T03:19:09;21.92;;;10.68;;
39888;SDS011;25563;50.844;4.308;2022-10-31T03:24:18;13.60;;;10.50;;
39888;SDS011;25563;50.844;4.308;2022-10-31T03:26:46;19.88;;;10.88;;
39888;SDS011;25563;50.844;4.308;2022-10-31T03:29:16;16.90;;;11.38;;
39888;SDS011;25563;50.844;4.308;2022-10-31T03:31:49;12.88;;;11.15;;
39888;SDS011;25563;50.844;4.308;2022-10-31T03:36:54;16.33;;;10.70;;
39888;SDS011;25563;50.844;4.308;2022-10-31T03:39:22;15.63;;;11.57;;
39888;SDS011;25563;50.844;4.308;2022-10-31T03:41:59;20.10;;;11.23;;
39888;SDS011;25563;50.844;4.308;2022-10-31T03:44:29;14.70;;;10.98;;
39888;SDS011;25563;50.844;4.308;2022-10-31T03:46:57;12.20;;;10.73;;
39888;SDS011;25563;50.844;4.308;2022-10-31T03:49:23;13.82;;;10.70;;
39888;SDS011;25563;50.844;4.308;2022-10-31T03:51:53;14.20;;;10.82;;
39888;SDS011;25563;50.844;4.308;2022-10-31T03:54:40;15.10;;;10.57;;
39888;SDS011;25563;50.844;4.308;2022-10-31T03:57:26;19.83;;;12.05;;
39888;SDS011;25563;50.844;4.308;2022-10-31T03:59:58;12.68;;;10.27;;
39888;SDS011;25563;50.844;4.308;2022-10-31T04:02:34;14.25;;;10.10;;
39888;SDS011;25563;50.844;4.308;2022-10-31T04:05:03;14.93;;;11.02;;
39888;SDS011;25563;50.844;4.308;2022-10-31T04:07:30;15.73;;;11.55;;
39888;SDS011;25563;50.844;4.308;2022-10-31T04:10:02;19.63;;;11.73;;
39888;SDS011;25563;50.844;4.308;2022-10-31T04:12:32;14.48;;;11.13;;
39888;SDS011;25563;50.844;4.308;2022-10-31T04:14:59;16.38;;;11.48;;
39888;SDS011;25563;50.844;4.308;2022-10-31T04:17:29;19.13;;;11.63;;
39888;SDS011;25563;50.844;4.308;2022-10-31T04:19:58;19.98;;;11.68;;
39888;SDS011;25563;50.844;4.308;2022-10-31T04:22:26;25.25;;;11.30;;
39888;SDS011;25563;50.844;4.308;2022-10-31T04:24:52;17.83;;;11.05;;
39888;SDS011;25563;50.844;4.308;2022-10-31T04:27:17;16.10;;;11.38;;
39888;SDS011;25563;50.844;4.308;2022-10-31T04:29:43;14.98;;;11.75;;
39888;SDS011;25563;50.844;4.308;2022-10-31T04:32:08;24.48;;;12.35;;
39888;SDS011;25563;50.844;4.308;2022-10-31T04:34:35;19.15;;;12.38;;
39888;SDS011;25563;50.844;4.308;2022-10-31T04:37:00;21.90;;;12.30;;
39888;SDS011;25563;50.844;4.308;2022-10-31T04:39:26;18.02;;;12.23;;
39888;SDS011;25563;50.844;4.308;2022-10-31T04:41:52;15.20;;;11.57;;
39888;SDS011;25563;50.844;4.308;2022-10-31T04:44:18;21.40;;;11.68;;
39888;SDS011;25563;50.844;4.308;2022-10-31T04:46:43;20.88;;;12.73;;
39888;SDS011;25563;50.844;4.308;2022-10-31T04:49:09;19.08;;;12.13;;
39888;SDS011;25563;50.844;4.308;2022-10-31T04:51:35;24.48;;;13.32;;
39888;SDS011;25563;50.844;4.308;2022-10-31T04:54:00;22.40;;;14.10;;
39888;SDS011;25563;50.844;4.308;2022-10-31T04:56:26;26.45;;;16.10;;
39888;SDS011;25563;50.844;4.308;2022-10-31T04:58:52;18.83;;;13.05;;
39888;SDS011;25563;50.844;4.308;2022-10-31T05:01:17;15.77;;;12.57;;
39888;SDS011;25563;50.844;4.308;2022-10-31T05:03:44;19.92;;;12.70;;
39888;SDS011;25563;50.844;4.308;2022-10-31T05:06:09;19.73;;;12.30;;
39888;SDS011;25563;50.844;4.308;2022-10-31T05:08:35;15.65;;;11.45;;
39888;SDS011;25563;50.844;4.308;2022-10-31T05:11:01;17.10;;;12.13;;
39888;SDS011;25563;50.844;4.308;2022-10-31T05:13:28;21.20;;;11.98;;
39888;SDS011;25563;50.844;4.308;2022-10-31T05:15:55;13.25;;;11.45;;
39888;SDS011;25563;50.844;4.308;2022-10-31T05:18:21;16.88;;;11.73;;
39888;SDS011;25563;50.844;4.308;2022-10-31T05:20:46;19.98;;;11.45;;
39888;SDS011;25563;50.844;4.308;2022-10-31T05:23:12;15.65;;;11.38;;
39888;SDS011;25563;50.844;4.308;2022-10-31T05:25:39;18.48;;;12.27;;
39888;SDS011;25563;50.844;4.308;2022-10-31T05:28:05;17.80;;;11.00;;
39888;SDS011;25563;50.844;4.308;2022-10-31T05:30:31;15.73;;;12.05;;
39888;SDS011;25563;50.844;4.308;2022-10-31T05:32:58;12.38;;;11.35;;
39888;SDS011;25563;50.844;4.308;2022-10-31T05:35:28;23.45;;;12.00;;
39888;SDS011;25563;50.844;4.308;2022-10-31T05:37:56;17.83;;;11.45;;
39888;SDS011;25563;50.844;4.308;2022-10-31T05:40:23;19.02;;;11.43;;
39888;SDS011;25563;50.844;4.308;2022-10-31T05:42:51;28.25;;;11.95;;
39888;SDS011;25563;50.844;4.308;2022-10-31T05:45:17;21.77;;;11.95;;
39888;SDS011;25563;50.844;4.308;2022-10-31T05:47:54;22.13;;;12.70;;
39888;SDS011;25563;50.844;4.308;2022-10-31T05:50:21;19.80;;;11.05;;
39888;SDS011;25563;50.844;4.308;2022-10-31T05:52:53;15.23;;;10.60;;
39888;SDS011;25563;50.844;4.308;2022-10-31T05:55:22;13.60;;;10.32;;
39888;SDS011;25563;50.844;4.308;2022-10-31T05:57:47;14.18;;;10.63;;
39888;SDS011;25563;50.844;4.308;2022-10-31T06:00:13;23.25;;;12.30;;
39888;SDS011;25563;50.844;4.308;2022-10-31T06:02:39;19.10;;;11.10;;
39888;SDS011;25563;50.844;4.308;2022-10-31T06:05:04;16.92;;;11.93;;
39888;SDS011;25563;50.844;4.308;2022-10-31T06:07:33;12.75;;;11.18;;
39888;SDS011;25563;50.844;4.308;2022-10-31T06:10:00;21.13;;;10.07;;
39888;SDS011;25563;50.844;4.308;2022-10-31T06:12:28;12.40;;;9.93;;
39888;SDS011;25563;50.844;4.308;2022-10-31T06:14:53;14.32;;;12.15;;
39888;SDS011;25563;50.844;4.308;2022-10-31T06:17:19;16.00;;;10.48;;
39888;SDS011;25563;50.844;4.308;2022-10-31T06:19:45;18.80;;;11.98;;
39888;SDS011;25563;50.844;4.308;2022-10-31T06:22:11;19.80;;;11.05;;
39888;SDS011;25563;50.844;4.308;2022-10-31T06:24:37;21.25;;;11.18;;
39888;SDS011;25563;50.844;4.308;2022-10-31T06:27:03;15.05;;;10.50;;
39888;SDS011;25563;50.844;4.308;2022-10-31T06:29:29;16.80;;;11.88;;
39888;SDS011;25563;50.844;4.308;2022-10-31T06:31:55;16.65;;;11.48;;
39888;SDS011;25563;50.844;4.308;2022-10-31T06:34:21;16.98;;;10.90;;
39888;SDS011;25563;50.844;4.308;2022-10-31T06:36:47;16.27;;;11.88;;
39888;SDS011;25563;50.844;4.308;2022-10-31T06:39:13;15.07;;;12.23;;
39888;SDS011;25563;50.844;4.308;2022-10-31T06:41:39;20.00;;;11.60;;
39888;SDS011;25563;50.844;4.308;2022-10-31T06:44:06;18.35;;;11.52;;
39888;SDS011;25563;50.844;4.308;2022-10-31T06:46:33;19.17;;;11.25;;
39888;SDS011;25563;50.844;4.308;2022-10-31T06:48:59;15.57;;;11.43;;
39888;SDS011;25563;50.844;4.308;2022-10-31T06:51:25;29.88;;;12.60;;
39888;SDS011;25563;50.844;4.308;2022-10-31T06:53:51;14.27;;;12.10;;
39888;SDS011;25563;50.844;4.308;2022-10-31T06:56:16;20.58;;;11.90;;
39888;SDS011;25563;50.844;4.308;2022-10-31T06:58:42;17.77;;;11.48;;
39888;SDS011;25563;50.844;4.308;2022-10-31T07:01:08;21.95;;;11.95;;
39888;SDS011;25563;50.844;4.308;2022-10-31T07:03:33;16.08;;;11.82;;
39888;SDS011;25563;50.844;4.308;2022-10-31T07:05:59;21.42;;;11.85;;
39888;SDS011;25563;50.844;4.308;2022-10-31T07:08:25;18.33;;;12.32;;
39888;SDS011;25563;50.844;4.308;2022-10-31T07:10:55;23.35;;;12.13;;
39888;SDS011;25563;50.844;4.308;2022-10-31T07:13:22;23.38;;;12.85;;
39888;SDS011;25563;50.844;4.308;2022-10-31T07:15:55;16.65;;;12.70;;
39888;SDS011;25563;50.844;4.308;2022-10-31T07:18:25;15.93;;;12.90;;
39888;SDS011;25563;50.844;4.308;2022-10-31T07:20:51;19.75;;;13.00;;
39888;SDS011;25563;50.844;4.308;2022-10-31T07:23:17;25.15;;;13.25;;
39888;SDS011;25563;50.844;4.308;2022-10-31T07:25:43;15.63;;;12.40;;
39888;SDS011;25563;50.844;4.308;2022-10-31T07:28:09;20.38;;;13.13;;
39888;SDS011;25563;50.844;4.308;2022-10-31T07:30:35;24.73;;;15.43;;
39888;SDS011;25563;50.844;4.308;2022-10-31T07:33:02;27.63;;;14.43;;
39888;SDS011;25563;50.844;4.308;2022-10-31T07:35:28;22.60;;;15.57;;
39888;SDS011;25563;50.844;4.308;2022-10-31T07:37:55;20.50;;;13.18;;
39888;SDS011;25563;50.844;4.308;2022-10-31T07:40:21;24.35;;;13.45;;
39888;SDS011;25563;50.844;4.308;2022-10-31T07:42:49;28.63;;;13.73;;
39888;SDS011;25563;50.844;4.308;2022-10-31T07:45:20;19.75;;;12.20;;
39888;SDS011;25563;50.844;4.308;2022-10-31T07:47:47;19.02;;;12.95;;
39888;SDS011;25563;50.844;4.308;2022-10-31T07:50:27;28.52;;;12.70;;
39888;SDS011;25563;50.844;4.308;2022-10-31T07:53:01;14.98;;;11.13;;
39888;SDS011;25563;50.844;4.308;2022-10-31T07:55:28;27.67;;;12.65;;
39888;SDS011;25563;50.844;4.308;2022-10-31T07:58:16;21.25;;;11.88;;
39888;SDS011;25563;50.844;4.308;2022-10-31T08:00:43;20.90;;;11.32;;
39888;SDS011;25563;50.844;4.308;2022-10-31T08:03:11;14.43;;;12.10;;
39888;SDS011;25563;50.844;4.308;2022-10-31T08:05:39;19.40;;;12.00;;
39888;SDS011;25563;50.844;4.308;2022-10-31T08:08:06;19.60;;;11.98;;
39888;SDS011;25563;50.844;4.308;2022-10-31T08:10:33;15.70;;;10.68;;
39888;SDS011;25563;50.844;4.308;2022-10-31T08:13:01;18.77;;;11.93;;
39888;SDS011;25563;50.844;4.308;2022-10-31T08:15:32;18.52;;;11.52;;
39888;SDS011;25563;50.844;4.308;2022-10-31T08:18:01;16.83;;;11.65;;
39888;SDS011;25563;50.844;4.308;2022-10-31T08:20:27;20.42;;;11.32;;
39888;SDS011;25563;50.844;4.308;2022-10-31T08:22:54;16.52;;;13.05;;
39888;SDS011;25563;50.844;4.308;2022-10-31T08:25:20;14.90;;;10.63;;
39888;SDS011;25563;50.844;4.308;2022-10-31T08:27:51;14.98;;;11.52;;
39888;SDS011;25563;50.844;4.308;2022-10-31T08:30:18;19.00;;;11.98;;
39888;SDS011;25563;50.844;4.308;2022-10-31T08:32:44;17.20;;;10.52;;
39888;SDS011;25563;50.844;4.308;2022-10-31T08:35:11;12.18;;;10.90;;
39888;SDS011;25563;50.844;4.308;2022-10-31T08:37:37;18.33;;;11.48;;
39888;SDS011;25563;50.844;4.308;2022-10-31T08:40:03;18.08;;;10.35;;
39888;SDS011;25563;50.844;4.308;2022-10-31T08:42:30;24.60;;;10.50;;
39888;SDS011;25563;50.844;4.308;2022-10-31T08:44:55;14.95;;;8.75;;
39888;SDS011;25563;50.844;4.308;2022-10-31T08:47:21;15.02;;;10.65;;
39888;SDS011;25563;50.844;4.308;2022-10-31T08:49:47;17.05;;;10.98;;
39888;SDS011;25563;50.844;4.308;2022-10-31T08:52:13;16.92;;;11.13;;
39888;SDS011;25563;50.844;4.308;2022-10-31T08:54:39;19.77;;;11.63;;
39888;SDS011;25563;50.844;4.308;2022-10-31T08:57:05;12.95;;;10.35;;
39888;SDS011;25563;50.844;4.308;2022-10-31T08:59:31;10.43;;;9.05;;
39888;SDS011;25563;50.844;4.308;2022-10-31T09:01:57;12.82;;;8.13;;
39888;SDS011;25563;50.844;4.308;2022-10-31T09:04:22;17.00;;;9.27;;
39888;SDS011;25563;50.844;4.308;2022-10-31T09:06:48;22.50;;;10.30;;
39888;SDS011;25563;50.844;4.308;2022-10-31T09:09:15;17.95;;;8.90;;
39888;SDS011;25563;50.844;4.308;2022-10-31T09:11:41;15.60;;;7.30;;
39888;SDS011;25563;50.844;4.308;2022-10-31T09:14:07;9.48;;;6.68;;
39888;SDS011;25563;50.844;4.308;2022-10-31T09:16:33;10.27;;;7.15;;
39888;SDS011;25563;50.844;4.308;2022-10-31T09:18:58;9.55;;;6.95;;
39888;SDS011;25563;50.844;4.308;2022-10-31T09:21:24;13.77;;;6.57;;
39888;SDS011;25563;50.844;4.308;2022-10-31T09:23:49;12.55;;;7.10;;
39888;SDS011;25563;50.844;4.308;2022-10-31T09:26:15;17.30;;;6.43;;
39888;SDS011;25563;50.844;4.308;2022-10-31T09:28:41;9.30;;;6.43;;
39888;SDS011;25563;50.844;4.308;2022-10-31T09:31:09;13.00;;;7.25;;
39888;SDS011;25563;50.844;4.308;2022-10-31T09:33:35;8.80;;;6.35;;
39888;SDS011;25563;50.844;4.308;2022-10-31T09:36:02;11.13;;;6.85;;
39888;SDS011;25563;50.844;4.308;2022-10-31T09:38:27;10.48;;;7.28;;
39888;SDS011;25563;50.844;4.308;2022-10-31T09:51:14;6.78;;;5.47;;
39888;SDS011;25563;50.844;4.308;2022-10-31T09:54:02;8.52;;;6.25;;
39888;SDS011;25563;50.844;4.308;2022-10-31T09:56:37;8.45;;;6.45;;
39888;SDS011;25563;50.844;4.308;2022-10-31T09:59:04;13.07;;;6.35;;
39888;SDS011;25563;50.844;4.308;2022-10-31T10:01:50;10.50;;;5.47;;
39888;SDS011;25563;50.844;4.308;2022-10-31T10:06:58;12.70;;;6.18;;
39888;SDS011;25563;50.844;4.308;2022-10-31T10:09:28;17.83;;;7.07;;
39888;SDS011;25563;50.844;4.308;2022-10-31T10:22:24;15.48;;;7.43;;
39888;SDS011;25563;50.844;4.308;2022-10-31T10:28:13;15.98;;;7.30;;
39888;SDS011;25563;50.844;4.308;2022-10-31T10:30:54;13.75;;;6.93;;
39888;SDS011;25563;50.844;4.308;2022-10-31T10:36:10;9.02;;;6.93;;
39888;SDS011;25563;50.844;4.308;2022-10-31T10:38:49;7.85;;;6.72;;
39888;SDS011;25563;50.844;4.308;2022-10-31T10:41:49;15.98;;;7.13;;
39888;SDS011;25563;50.844;4.308;2022-10-31T10:44:38;21.33;;;8.52;;
39888;SDS011;25563;50.844;4.308;2022-10-31T10:47:27;15.20;;;10.52;;
39888;SDS011;25563;50.844;4.308;2022-10-31T10:50:10;20.13;;;8.50;;
39888;SDS011;25563;50.844;4.308;2022-10-31T10:52:48;20.05;;;7.38;;
39888;SDS011;25563;50.844;4.308;2022-10-31T10:58:32;15.05;;;8.25;;
39888;SDS011;25563;50.844;4.308;2022-10-31T11:00:57;13.65;;;7.55;;
39888;SDS011;25563;50.844;4.308;2022-10-31T11:03:24;10.82;;;8.55;;
39888;SDS011;25563;50.844;4.308;2022-10-31T11:05:50;15.85;;;7.75;;
39888;SDS011;25563;50.844;4.308;2022-10-31T11:08:34;12.35;;;9.07;;
39888;SDS011;25563;50.844;4.308;2022-10-31T11:13:28;16.35;;;9.25;;
39888;SDS011;25563;50.844;4.308;2022-10-31T11:18:27;18.15;;;11.30;;
39888;SDS011;25563;50.844;4.308;2022-10-31T11:20:56;25.75;;;11.32;;
39888;SDS011;25563;50.844;4.308;2022-10-31T11:23:24;18.38;;;9.30;;
39888;SDS011;25563;50.844;4.308;2022-10-31T11:25:54;11.02;;;8.40;;
39888;SDS011;25563;50.844;4.308;2022-10-31T11:28:25;11.23;;;7.32;;
39888;SDS011;25563;50.844;4.308;2022-10-31T11:30:55;12.27;;;8.35;;
39888;SDS011;25563;50.844;4.308;2022-10-31T11:33:26;13.90;;;7.47;;
39888;SDS011;25563;50.844;4.308;2022-10-31T11:35:58;14.82;;;6.45;;
39888;SDS011;25563;50.844;4.308;2022-10-31T11:38:31;10.80;;;7.15;;
39888;SDS011;25563;50.844;4.308;2022-10-31T11:41:24;14.80;;;7.13;;
39888;SDS011;25563;50.844;4.308;2022-10-31T11:44:02;17.02;;;8.20;;
39888;SDS011;25563;50.844;4.308;2022-10-31T11:46:52;18.35;;;6.85;;
39888;SDS011;25563;50.844;4.308;2022-10-31T11:49:41;16.55;;;7.88;;
39888;SDS011;25563;50.844;4.308;2022-10-31T11:55:34;11.82;;;7.10;;
39888;SDS011;25563;50.844;4.308;2022-10-31T11:58:02;14.07;;;7.13;;
39888;SDS011;25563;50.844;4.308;2022-10-31T12:00:32;13.65;;;6.95;;
39888;SDS011;25563;50.844;4.308;2022-10-31T12:05:57;15.88;;;7.45;;
39888;SDS011;25563;50.844;4.308;2022-10-31T12:08:31;14.55;;;7.28;;
39888;SDS011;25563;50.844;4.308;2022-10-31T12:24:48;22.92;;;6.10;;
39888;SDS011;25563;50.844;4.308;2022-10-31T12:57:32;15.20;;;5.40;;
39888;SDS011;25563;50.844;4.308;2022-10-31T13:00:04;19.77;;;5.88;;
39888;SDS011;25563;50.844;4.308;2022-10-31T13:06:07;10.95;;;5.65;;
39888;SDS011;25563;50.844;4.308;2022-10-31T13:08:40;9.50;;;5.35;;
39888;SDS011;25563;50.844;4.308;2022-10-31T13:11:24;10.40;;;5.22;;
39888;SDS011;25563;50.844;4.308;2022-10-31T13:16:34;14.35;;;6.05;;
39888;SDS011;25563;50.844;4.308;2022-10-31T13:19:18;7.88;;;5.38;;
39888;SDS011;25563;50.844;4.308;2022-10-31T13:24:42;9.38;;;4.47;;
39888;SDS011;25563;50.844;4.308;2022-10-31T13:27:25;10.43;;;4.70;;
39888;SDS011;25563;50.844;4.308;2022-10-31T13:32:44;19.23;;;5.40;;
39888;SDS011;25563;50.844;4.308;2022-10-31T13:41:51;15.43;;;7.72;;
39888;SDS011;25563;50.844;4.308;2022-10-31T13:44:12;16.38;;;4.85;;
39888;SDS011;25563;50.844;4.308;2022-10-31T13:46:49;16.00;;;6.80;;
39888;SDS011;25563;50.844;4.308;2022-10-31T13:54:35;12.00;;;4.93;;
39888;SDS011;25563;50.844;4.308;2022-10-31T13:57:15;10.35;;;4.72;;
39888;SDS011;25563;50.844;4.308;2022-10-31T13:59:56;13.10;;;5.03;;
39888;SDS011;25563;50.844;4.308;2022-10-31T14:02:27;11.63;;;5.60;;
39888;SDS011;25563;50.844;4.308;2022-10-31T14:05:03;7.53;;;4.65;;
39888;SDS011;25563;50.844;4.308;2022-10-31T14:07:31;12.80;;;4.82;;
39888;SDS011;25563;50.844;4.308;2022-10-31T14:18:42;17.67;;;6.13;;
39888;SDS011;25563;50.844;4.308;2022-10-31T14:23:48;11.90;;;5.05;;
39888;SDS011;25563;50.844;4.308;2022-10-31T14:29:00;12.93;;;6.15;;
39888;SDS011;25563;50.844;4.308;2022-10-31T14:31:30;14.05;;;5.25;;
39888;SDS011;25563;50.844;4.308;2022-10-31T14:39:29;6.82;;;4.07;;
39888;SDS011;25563;50.844;4.308;2022-10-31T14:52:38;13.57;;;5.43;;
39888;SDS011;25563;50.844;4.308;2022-10-31T14:55:07;20.02;;;5.85;;
39888;SDS011;25563;50.844;4.308;2022-10-31T14:57:37;16.58;;;3.63;;
39888;SDS011;25563;50.844;4.308;2022-10-31T15:00:15;11.63;;;4.22;;
39888;SDS011;25563;50.844;4.308;2022-10-31T15:05:48;9.75;;;4.35;;
39888;SDS011;25563;50.844;4.308;2022-10-31T15:08:40;12.13;;;5.30;;
39888;SDS011;25563;50.844;4.308;2022-10-31T15:13:43;16.27;;;4.63;;
39888;SDS011;25563;50.844;4.308;2022-10-31T15:16:11;12.00;;;4.18;;
39888;SDS011;25563;50.844;4.308;2022-10-31T15:18:48;11.43;;;4.40;;
39888;SDS011;25563;50.844;4.308;2022-10-31T15:21:19;8.55;;;4.82;;
39888;SDS011;25563;50.844;4.308;2022-10-31T15:23:46;8.70;;;4.80;;
39888;SDS011;25563;50.844;4.308;2022-10-31T15:26:16;19.70;;;5.38;;
39888;SDS011;25563;50.844;4.308;2022-10-31T15:28:43;14.40;;;5.03;;
39888;SDS011;25563;50.844;4.308;2022-10-31T15:31:16;10.70;;;5.40;;
39888;SDS011;25563;50.844;4.308;2022-10-31T15:33:44;15.82;;;5.95;;
39888;SDS011;25563;50.844;4.308;2022-10-31T15:36:21;12.32;;;4.78;;
39888;SDS011;25563;50.844;4.308;2022-10-31T15:38:49;16.13;;;6.22;;
39888;SDS011;25563;50.844;4.308;2022-10-31T15:41:20;14.70;;;5.88;;
39888;SDS011;25563;50.844;4.308;2022-10-31T15:44:04;12.50;;;5.95;;
39888;SDS011;25563;50.844;4.308;2022-10-31T15:46:39;9.90;;;5.78;;
39888;SDS011;25563;50.844;4.308;2022-10-31T15:49:09;19.13;;;6.70;;
39888;SDS011;25563;50.844;4.308;2022-10-31T15:51:49;20.88;;;6.13;;
39888;SDS011;25563;50.844;4.308;2022-10-31T15:54:16;17.20;;;6.40;;
39888;SDS011;25563;50.844;4.308;2022-10-31T15:56:42;27.23;;;6.63;;
39888;SDS011;25563;50.844;4.308;2022-10-31T15:59:16;12.77;;;6.43;;
39888;SDS011;25563;50.844;4.308;2022-10-31T16:01:55;24.05;;;7.38;;
39888;SDS011;25563;50.844;4.308;2022-10-31T16:04:26;20.65;;;7.43;;
39888;SDS011;25563;50.844;4.308;2022-10-31T16:06:59;22.20;;;7.15;;
39888;SDS011;25563;50.844;4.308;2022-10-31T16:09:27;14.95;;;6.90;;
39888;SDS011;25563;50.844;4.308;2022-10-31T16:11:53;28.77;;;7.95;;
39888;SDS011;25563;50.844;4.308;2022-10-31T16:14:26;20.08;;;7.30;;
39888;SDS011;25563;50.844;4.308;2022-10-31T16:16:55;17.50;;;8.20;;
39888;SDS011;25563;50.844;4.308;2022-10-31T16:19:30;18.80;;;7.57;;
39888;SDS011;25563;50.844;4.308;2022-10-31T16:22:04;15.00;;;7.32;;
39888;SDS011;25563;50.844;4.308;2022-10-31T16:24:49;14.45;;;8.30;;
39888;SDS011;25563;50.844;4.308;2022-10-31T16:27:18;12.85;;;7.18;;
39888;SDS011;25563;50.844;4.308;2022-10-31T16:29:50;20.50;;;7.75;;
39888;SDS011;25563;50.844;4.308;2022-10-31T16:35:02;22.25;;;8.32;;
39888;SDS011;25563;50.844;4.308;2022-10-31T16:37:43;25.80;;;8.00;;
39888;SDS011;25563;50.844;4.308;2022-10-31T16:40:10;21.90;;;8.43;;
39888;SDS011;25563;50.844;4.308;2022-10-31T16:42:39;26.42;;;9.55;;
39888;SDS011;25563;50.844;4.308;2022-10-31T16:45:13;19.70;;;9.30;;
39888;SDS011;25563;50.844;4.308;2022-10-31T16:47:43;33.72;;;10.68;;
39888;SDS011;25563;50.844;4.308;2022-10-31T16:50:14;18.85;;;8.07;;
39888;SDS011;25563;50.844;4.308;2022-10-31T16:52:42;21.10;;;8.85;;
39888;SDS011;25563;50.844;4.308;2022-10-31T16:55:10;15.38;;;8.23;;
39888;SDS011;25563;50.844;4.308;2022-10-31T16:57:38;13.23;;;7.43;;
39888;SDS011;25563;50.844;4.308;2022-10-31T17:00:04;17.85;;;7.05;;
39888;SDS011;25563;50.844;4.308;2022-10-31T17:02:30;14.93;;;6.60;;
39888;SDS011;25563;50.844;4.308;2022-10-31T17:04:56;19.95;;;5.88;;
39888;SDS011;25563;50.844;4.308;2022-10-31T17:07:22;10.30;;;5.25;;
39888;SDS011;25563;50.844;4.308;2022-10-31T17:09:47;13.75;;;5.07;;
39888;SDS011;25563;50.844;4.308;2022-10-31T17:12:14;12.63;;;4.93;;
39888;SDS011;25563;50.844;4.308;2022-10-31T17:14:45;8.80;;;5.13;;
39888;SDS011;25563;50.844;4.308;2022-10-31T17:17:15;10.40;;;4.55;;
39888;SDS011;25563;50.844;4.308;2022-10-31T17:19:41;13.30;;;4.68;;
39888;SDS011;25563;50.844;4.308;2022-10-31T17:22:08;12.75;;;4.53;;
39888;SDS011;25563;50.844;4.308;2022-10-31T17:24:36;11.10;;;4.95;;
39888;SDS011;25563;50.844;4.308;2022-10-31T17:27:02;9.93;;;4.85;;
39888;SDS011;25563;50.844;4.308;2022-10-31T17:29:27;15.45;;;5.25;;
39888;SDS011;25563;50.844;4.308;2022-10-31T17:31:53;7.30;;;4.63;;
39888;SDS011;25563;50.844;4.308;2022-10-31T17:34:19;21.00;;;6.03;;
39888;SDS011;25563;50.844;4.308;2022-10-31T17:36:48;14.60;;;5.68;;
39888;SDS011;25563;50.844;4.308;2022-10-31T17:39:15;8.65;;;4.80;;
39888;SDS011;25563;50.844;4.308;2022-10-31T17:41:41;19.20;;;5.28;;
39888;SDS011;25563;50.844;4.308;2022-10-31T17:44:08;10.52;;;5.40;;
39888;SDS011;25563;50.844;4.308;2022-10-31T17:46:35;9.63;;;4.93;;
39888;SDS011;25563;50.844;4.308;2022-10-31T17:49:01;16.13;;;4.85;;